createdAt,value
2018-09-15T05:03:25.184Z,87.38
2018-09-15T05:04:24.646Z,87.84
2018-09-15T05:05:24.661Z,87.84
2018-09-15T05:06:24.587Z,87.02
2018-09-15T05:07:24.605Z,87.73
2018-09-15T05:08:24.737Z,89.17
2018-09-15T05:09:24.687Z,88.71
2018-09-15T05:10:24.568Z,88.92
2018-09-15T05:11:35.578Z,88.10
2018-09-15T05:23:55.110Z,88.57
2018-09-15T05:26:31.867Z,87.35
2018-09-15T05:31:53.261Z,87.51
2018-09-15T05:32:52.830Z,88.12
2018-09-15T05:33:54.706Z,88.02
2018-09-15T05:34:52.784Z,87.71
2018-09-15T05:35:52.758Z,87.51
2018-09-15T05:36:52.802Z,87.20
2018-09-15T05:37:59.663Z,87.61
2018-09-15T05:38:53.636Z,88.64
2018-09-15T05:39:52.716Z,88.64
2018-09-15T05:40:52.661Z,87.77
2018-09-15T05:41:52.610Z,87.57
2018-09-15T05:42:52.722Z,87.37
2018-09-15T05:43:52.683Z,87.67
2018-09-15T05:44:52.648Z,87.77
2018-09-15T05:45:52.847Z,87.06
2018-09-15T05:46:54.596Z,87.16
2018-09-15T05:47:52.855Z,87.26
2018-09-15T05:48:52.529Z,87.37
2018-09-15T05:49:52.522Z,87.77
2018-09-15T05:50:52.556Z,87.37
2018-09-15T05:51:52.562Z,86.96
2018-09-15T05:52:52.621Z,87.06
2018-09-15T05:53:52.580Z,88.08
2018-09-15T05:54:54.171Z,87.47
2018-09-15T05:55:52.584Z,87.98
2018-09-15T05:56:52.537Z,87.12
2018-09-15T05:57:52.470Z,87.77
2018-09-15T05:58:52.472Z,87.06
2018-09-15T05:59:52.474Z,87.32
2018-09-15T06:00:52.459Z,87.12
2018-09-15T06:01:52.513Z,87.73
2018-09-15T06:02:52.488Z,88.55
2018-09-15T06:03:52.562Z,87.53
2018-09-15T06:04:52.362Z,87.84
2018-09-15T06:05:52.434Z,87.23
2018-09-15T06:06:52.482Z,87.32
2018-09-15T06:07:52.327Z,87.63
2018-09-15T06:08:52.370Z,87.23
2018-09-15T06:09:52.343Z,88.65
2018-09-15T06:10:52.392Z,87.32
2018-09-15T06:11:52.439Z,88.55
2018-09-15T06:12:52.382Z,88.51
2018-09-15T06:13:52.389Z,87.70
2018-09-15T06:14:52.272Z,86.82
2018-09-15T06:15:52.309Z,86.57
2018-09-15T06:16:52.266Z,87.49
2018-09-15T06:17:52.261Z,87.08
2018-09-15T06:18:52.344Z,86.98
2018-09-15T06:19:52.188Z,87.45
2018-09-15T06:20:52.276Z,86.63
2018-09-15T06:21:52.183Z,86.83
2018-09-15T06:22:52.167Z,86.73
2018-09-15T06:23:52.174Z,87.04
2018-09-15T06:24:52.150Z,86.08
2018-09-15T06:25:52.171Z,86.18
2018-09-15T06:26:52.124Z,85.57
2018-09-15T06:27:52.141Z,85.68
2018-09-15T06:28:52.185Z,86.18
2018-09-15T06:29:52.081Z,85.98
2018-09-15T06:30:52.124Z,85.98
2018-09-15T06:31:52.064Z,85.98
2018-09-15T06:32:52.044Z,85.98
2018-09-15T06:33:52.079Z,86.08
2018-09-15T06:34:52.141Z,85.88
2018-09-15T06:35:52.127Z,86.39
2018-09-15T06:36:52.001Z,85.84
2018-09-15T06:37:51.993Z,85.53
2018-09-15T06:42:07.112Z,85.84
2018-09-15T06:43:06.506Z,85.63
2018-09-15T06:44:06.962Z,84.58
2018-09-15T06:45:06.495Z,84.67
2018-09-15T06:46:06.445Z,85.19
2018-09-15T06:47:06.459Z,85.19
2018-09-15T06:48:06.381Z,84.33
2018-09-15T06:49:06.421Z,84.43
2018-09-15T06:50:06.340Z,84.53
2018-09-15T06:51:06.335Z,84.43
2018-09-15T06:52:06.331Z,84.53
2018-09-15T06:53:06.374Z,83.72
2018-09-15T06:54:06.297Z,83.82
2018-09-15T06:55:06.351Z,83.37
2018-09-15T06:56:06.274Z,83.27
2018-09-15T06:57:06.318Z,83.48
2018-09-15T06:58:06.276Z,83.07
2018-09-15T06:59:06.261Z,83.44
2018-09-15T07:00:06.332Z,82.93
2018-09-15T07:01:06.224Z,82.93
2018-09-15T07:02:06.212Z,82.42
2018-09-15T07:03:06.222Z,82.79
2018-09-15T07:04:06.186Z,82.59
2018-09-15T07:05:06.167Z,82.62
2018-09-15T07:06:06.192Z,82.18
2018-09-15T07:07:06.298Z,82.28
2018-09-15T07:08:06.133Z,82.24
2018-09-15T07:09:06.211Z,82.34
2018-09-15T07:10:06.168Z,81.93
2018-09-15T07:11:06.147Z,81.73
2018-09-15T07:13:41.836Z,81.53
2018-09-15T07:14:42.891Z,81.43
2018-09-15T07:15:44.097Z,81.49
2018-09-15T07:20:24.765Z,80.88
2018-09-15T07:21:24.770Z,80.68
2018-09-15T07:22:23.314Z,80.54
2018-09-15T07:23:23.276Z,80.13
2018-09-15T07:24:23.235Z,80.33
2018-09-15T07:25:24.698Z,80.44
2018-09-15T07:26:23.025Z,79.63
2018-09-15T07:27:23.012Z,79.49
2018-09-15T07:28:23.074Z,79.79
2018-09-15T07:29:22.999Z,79.38
2018-09-15T07:30:23.083Z,79.38
2018-09-15T07:31:23.043Z,79.59
2018-09-15T07:32:23.041Z,79.49
2018-09-15T07:33:23.016Z,79.59
2018-09-15T07:34:22.945Z,79.90
2018-09-15T07:35:22.966Z,79.04
2018-09-15T07:36:22.914Z,79.14
2018-09-15T07:37:23.053Z,79.35
2018-09-15T07:38:22.908Z,78.84
2018-09-15T07:39:22.959Z,78.44
2018-09-15T07:40:25.061Z,78.40
2018-09-15T07:41:22.878Z,78.44
2018-09-15T07:42:22.865Z,78.91
2018-09-15T07:43:22.866Z,77.79
2018-09-15T07:44:22.825Z,77.69
2018-09-15T07:45:22.815Z,77.75
2018-09-15T07:46:22.960Z,77.55
2018-09-15T07:47:22.857Z,77.86
2018-09-15T07:48:22.812Z,77.86
2018-09-15T07:49:23.418Z,77.75
2018-09-15T07:50:23.003Z,76.84
2018-09-15T07:54:18.381Z,76.60
2018-09-15T07:56:35.439Z,75.65
2018-09-15T07:57:35.178Z,75.76
2018-09-15T07:58:35.258Z,75.25
2018-09-15T07:59:35.766Z,76.03
2018-09-15T08:00:35.081Z,75.01
2018-09-15T08:01:34.852Z,76.43
2018-09-15T08:02:34.737Z,75.11
2018-09-15T08:03:34.712Z,74.07
2018-09-15T08:06:00.658Z,74.20
2018-09-15T08:07:00.693Z,73.46
2018-09-15T08:08:00.369Z,74.81
2018-09-15T08:10:34.840Z,73.86
2018-09-15T08:11:41.572Z,72.92
2018-09-15T08:12:35.059Z,73.22
2018-09-15T08:13:35.097Z,72.81
2018-09-15T08:14:34.700Z,73.28
2018-09-15T08:15:34.836Z,72.38
2018-09-15T08:16:34.701Z,71.87
2018-09-15T08:17:34.716Z,72.04
2018-09-15T08:18:36.415Z,71.94
2018-09-15T08:19:34.592Z,72.44
2018-09-15T08:20:34.669Z,71.53
2018-09-15T08:21:34.583Z,71.33
2018-09-15T08:22:34.581Z,71.33
2018-09-15T08:23:34.630Z,72.24
2018-09-15T08:24:34.582Z,72.24
2018-09-15T08:25:34.519Z,71.84
2018-09-15T08:26:34.571Z,71.40
2018-09-15T08:27:34.518Z,71.91
2018-09-15T08:28:34.589Z,71.10
2018-09-15T08:29:34.481Z,71.30
2018-09-15T08:30:34.485Z,71.60
2018-09-15T08:31:36.614Z,71.26
2018-09-15T08:33:50.245Z,69.72
2018-09-15T08:40:04.817Z,69.31
2018-09-15T08:40:53.458Z,70.06
2018-09-15T08:55:31.479Z,67.91
2018-09-15T08:56:31.800Z,67.68
2018-09-15T08:57:33.078Z,67.77
2018-09-15T08:58:31.282Z,66.47
2018-09-15T08:59:31.383Z,66.43
2018-09-15T09:00:31.140Z,66.43
2018-09-15T09:01:31.219Z,66.94
2018-09-15T09:02:31.120Z,65.73
2018-09-15T09:03:31.144Z,65.46
2018-09-15T09:04:31.308Z,65.96
2018-09-15T09:07:18.171Z,66.70
2018-09-15T09:08:17.981Z,65.79
2018-09-15T09:09:18.813Z,66.47
2018-09-15T09:10:17.857Z,67.88
2018-09-15T09:11:19.168Z,66.63
2018-09-15T09:12:17.645Z,65.50
2018-09-15T09:13:17.676Z,65.09
2018-09-15T09:14:17.591Z,65.53
2018-09-15T09:15:17.576Z,65.19
2018-09-15T09:16:18.139Z,65.50
2018-09-15T09:17:17.760Z,64.79
2018-09-15T09:18:17.609Z,65.30
2018-09-15T09:19:17.537Z,64.89
2018-09-15T09:20:17.537Z,65.53
2018-09-15T09:22:40.694Z,64.62
2018-09-15T09:23:39.907Z,65.22
2018-09-15T09:24:43.482Z,65.39
2018-09-15T09:43:22.669Z,62.99
2018-09-15T09:47:27.317Z,62.39
2018-09-15T09:48:26.865Z,61.96
2018-09-15T09:49:26.861Z,62.26
2018-09-15T09:50:27.035Z,62.56
2018-09-15T09:51:29.218Z,61.76
2018-09-15T09:56:09.003Z,62.76
2018-09-15T09:59:43.298Z,61.99
2018-09-15T10:00:42.910Z,63.59
2018-09-15T10:01:42.925Z,63.02
2018-09-15T10:02:42.750Z,63.22
2018-09-15T10:03:45.596Z,63.22
2018-09-15T10:04:42.890Z,64.03
2018-09-15T10:05:42.710Z,64.56
2018-09-15T10:06:42.678Z,64.46
2018-09-15T10:07:42.689Z,64.89
2018-09-15T10:08:42.674Z,65.39
2018-09-15T10:09:42.650Z,64.99
2018-09-15T10:10:42.719Z,65.42
2018-09-15T10:11:43.647Z,65.93
2018-09-15T10:12:42.623Z,66.33
2018-09-15T10:13:42.614Z,65.93
2018-09-15T10:14:42.671Z,66.27
2018-09-15T10:17:24.259Z,66.87
2018-09-15T10:23:01.557Z,66.33
2018-09-15T10:26:02.323Z,65.93
2018-09-15T10:27:00.019Z,66.23
2018-09-15T10:28:00.353Z,66.43
2018-09-15T10:29:00.985Z,66.43
2018-09-15T10:37:18.519Z,66.53
2018-09-15T10:38:18.132Z,64.49
2018-09-15T10:39:18.766Z,64.59
2018-09-15T10:54:18.814Z,65.83
2018-09-15T10:55:18.488Z,65.93
2018-09-15T11:06:23.333Z,65.76
2018-09-15T11:27:45.455Z,61.11
2018-09-15T11:29:56.581Z,60.18
2018-09-15T11:32:30.336Z,59.85
2018-09-15T11:33:29.903Z,57.54
2018-09-15T11:34:29.850Z,58.04
2018-09-15T11:35:30.033Z,58.84
2018-09-15T11:36:29.779Z,57.94
2018-09-15T11:37:29.726Z,58.17
2018-09-15T11:38:29.728Z,57.37
2018-09-15T11:39:31.521Z,57.57
2018-09-15T11:40:29.692Z,57.97
2018-09-15T11:41:29.686Z,58.97
2018-09-15T11:42:29.675Z,58.77
2018-09-15T11:43:29.806Z,57.67
2018-09-15T11:44:29.654Z,58.37
2018-09-15T11:45:29.710Z,59.10
2018-09-15T11:46:29.641Z,59.27
2018-09-15T11:47:29.625Z,59.38
2018-09-15T11:48:29.617Z,60.81
2018-09-15T11:49:29.595Z,61.01
2018-09-15T11:50:29.582Z,61.49
2018-09-15T11:51:29.631Z,60.98
2018-09-15T11:52:29.593Z,60.58
2018-09-15T11:53:29.571Z,59.67
2018-09-15T11:54:29.620Z,59.17
2018-09-15T11:55:29.528Z,59.47
2018-09-15T11:56:29.574Z,60.78
2018-09-15T11:57:30.152Z,59.17
2018-09-15T11:58:29.509Z,59.20
2018-09-15T11:59:29.588Z,59.30
2018-09-15T12:00:29.486Z,59.20
2018-09-15T12:01:29.505Z,59.23
2018-09-15T12:02:29.528Z,58.70
2018-09-15T12:03:29.452Z,58.53
2018-09-15T12:04:29.439Z,58.93
2018-09-15T12:05:29.427Z,59.03
2018-09-15T12:06:29.490Z,58.86
2018-09-15T12:07:29.458Z,59.03
2018-09-15T12:08:29.397Z,59.56
2018-09-15T12:09:29.385Z,58.93
2018-09-15T12:10:29.929Z,59.03
2018-09-15T12:11:29.355Z,59.23
2018-09-15T12:12:29.382Z,59.74
2018-09-15T12:13:29.369Z,59.43
2018-09-15T12:14:29.362Z,60.13
2018-09-15T12:15:29.453Z,60.74
2018-09-15T12:16:29.354Z,60.74
2018-09-15T12:17:29.299Z,61.14
2018-09-15T12:18:29.331Z,61.94
2018-09-15T12:19:31.012Z,61.85
2018-09-15T12:20:29.311Z,61.44
2018-09-15T12:21:29.256Z,61.24
2018-09-15T12:22:29.237Z,61.65
2018-09-15T12:23:29.237Z,62.05
2018-09-15T12:24:29.258Z,61.54
2018-09-15T12:25:29.238Z,62.05
2018-09-15T12:26:29.198Z,61.51
2018-09-15T12:27:29.240Z,61.01
2018-09-15T12:28:29.211Z,61.11
2018-09-15T12:29:29.177Z,61.61
2018-09-15T12:30:29.167Z,61.41
2018-09-15T12:31:29.144Z,61.41
2018-09-15T12:32:29.179Z,60.51
2018-09-15T12:33:29.198Z,61.69
2018-09-15T12:34:29.162Z,58.87
2018-09-15T12:35:29.155Z,58.67
2018-09-15T12:36:29.111Z,59.67
2018-09-15T12:37:29.070Z,59.88
2018-09-15T12:38:29.078Z,58.84
2018-09-15T12:39:29.129Z,59.55
2018-09-15T12:40:29.056Z,59.14
2018-09-15T12:41:29.056Z,58.84
2018-09-15T12:42:29.108Z,57.31
2018-09-15T12:43:29.364Z,57.14
2018-09-15T12:44:29.005Z,59.45
2018-09-15T12:45:28.987Z,57.14
2018-09-15T12:46:29.007Z,56.43
2018-09-15T12:47:28.983Z,56.43
2018-09-15T12:48:28.971Z,56.13
2018-09-15T12:49:28.973Z,56.43
2018-09-15T12:50:28.953Z,56.86
2018-09-15T12:51:28.941Z,56.34
2018-09-15T12:52:28.926Z,56.93
2018-09-15T12:53:28.903Z,55.23
2018-09-15T12:54:28.896Z,56.36
2018-09-15T12:55:28.992Z,56.26
2018-09-15T12:56:28.869Z,56.74
2018-09-15T12:57:28.937Z,57.24
2018-09-15T12:58:28.891Z,57.04
2018-09-15T12:59:28.840Z,56.84
2018-09-15T13:00:28.831Z,55.80
2018-09-15T13:01:28.919Z,56.81
2018-09-15T13:02:28.879Z,55.78
2018-09-15T13:03:28.865Z,54.38
2018-09-15T13:04:28.814Z,55.20
2018-09-15T13:05:28.837Z,55.30
2018-09-15T13:06:28.807Z,55.51
2018-09-15T13:07:28.902Z,55.30
2018-09-15T13:08:28.901Z,55.23
2018-09-15T13:09:28.784Z,56.51
2018-09-15T13:10:28.737Z,55.73
2018-09-15T13:11:28.718Z,56.23
2018-09-15T13:12:28.746Z,57.24
2018-09-15T13:13:28.752Z,56.74
2018-09-15T13:14:28.869Z,56.93
2018-09-15T13:15:28.762Z,56.84
2018-09-15T13:16:28.788Z,57.17
2018-09-15T13:17:28.829Z,56.63
2018-09-15T13:18:28.645Z,56.96
2018-09-15T13:19:28.668Z,56.96
2018-09-15T13:20:28.609Z,56.86
2018-09-15T13:21:28.609Z,57.46
2018-09-15T13:22:28.589Z,57.46
2018-09-15T13:23:28.601Z,56.96
2018-09-15T13:24:28.647Z,57.17
2018-09-15T13:25:28.553Z,57.57
2018-09-15T13:26:29.513Z,57.50
2018-09-15T13:27:28.531Z,57.09
2018-09-15T13:28:28.575Z,57.67
2018-09-15T13:29:28.611Z,57.09
2018-09-15T13:30:28.520Z,57.79
2018-09-15T13:31:28.497Z,57.06
2018-09-15T13:32:28.661Z,57.90
2018-09-15T13:35:14.698Z,57.50
2018-09-15T13:36:14.494Z,57.29
2018-09-15T13:37:15.233Z,57.19
2018-09-15T13:38:14.434Z,57.29
2018-09-15T13:39:14.358Z,57.42
2018-09-15T13:40:14.199Z,57.79
2018-09-15T13:42:39.167Z,57.29
2018-09-15T13:47:15.284Z,57.92
2018-09-15T13:48:15.052Z,57.12
2018-09-15T13:49:14.844Z,57.22
2018-09-15T13:50:14.889Z,57.52
2018-09-15T13:51:14.777Z,57.52
2018-09-15T13:52:14.734Z,57.12
2018-09-15T13:53:14.671Z,57.19
2018-09-15T13:54:14.642Z,58.50
2018-09-15T13:55:14.690Z,57.39
2018-09-15T13:56:14.590Z,57.19
2018-09-15T13:57:14.581Z,57.50
2018-09-15T13:58:14.564Z,57.19
2018-09-15T13:59:14.620Z,57.59
2018-09-15T14:00:14.699Z,57.59
2018-09-15T14:01:14.542Z,57.87
2018-09-15T14:02:14.531Z,57.37
2018-09-15T14:03:14.705Z,57.46
2018-09-15T14:04:14.548Z,57.74
2018-09-15T14:05:14.670Z,58.54
2018-09-15T14:06:14.508Z,56.93
2018-09-15T14:07:14.613Z,57.14
2018-09-15T14:08:14.499Z,57.74
2018-09-15T14:09:14.486Z,57.24
2018-09-15T14:10:19.014Z,57.44
2018-09-15T14:11:14.487Z,57.44
2018-09-15T14:12:14.441Z,56.84
2018-09-15T14:13:14.459Z,57.24
2018-09-15T14:14:14.418Z,57.11
2018-09-15T14:15:14.392Z,56.84
2018-09-15T14:16:14.429Z,56.54
2018-09-15T14:17:14.418Z,56.41
2018-09-15T14:18:14.431Z,56.21
2018-09-15T14:19:14.381Z,56.61
2018-09-15T14:20:14.339Z,56.63
2018-09-15T14:21:14.326Z,57.04
2018-09-15T14:22:14.422Z,56.84
2018-09-15T14:23:14.304Z,57.34
2018-09-15T14:24:14.295Z,56.93
2018-09-15T14:25:15.670Z,56.96
2018-09-15T14:26:14.282Z,57.17
2018-09-15T14:27:14.431Z,57.46
2018-09-15T14:28:14.324Z,57.46
2018-09-15T14:29:14.275Z,57.37
2018-09-15T14:30:14.229Z,57.26
2018-09-15T14:31:14.378Z,56.96
2018-09-15T14:32:14.276Z,56.56
2018-09-15T14:35:23.296Z,55.35
2018-09-15T14:36:39.189Z,55.68
2018-09-15T14:37:23.638Z,56.38
2018-09-15T14:38:23.214Z,55.28
2018-09-15T14:39:36.500Z,55.38
2018-09-15T14:40:23.640Z,55.58
2018-09-15T14:41:24.255Z,55.28
2018-09-15T14:42:23.238Z,55.31
2018-09-15T14:43:23.346Z,56.51
2018-09-15T14:44:22.858Z,55.58
2018-09-15T14:45:22.646Z,55.08
2018-09-15T14:46:22.679Z,55.41
2018-09-15T14:47:22.623Z,55.48
2018-09-15T14:48:22.676Z,54.40
2018-09-15T14:49:22.627Z,54.98
2018-09-15T14:50:22.662Z,54.58
2018-09-15T14:51:22.626Z,54.48
2018-09-15T14:52:22.587Z,54.38
2018-09-15T14:53:22.616Z,55.08
2018-09-15T14:54:22.600Z,54.58
2018-09-15T14:55:22.704Z,54.78
2018-09-15T14:56:22.936Z,52.67
2018-09-15T14:57:22.533Z,52.87
2018-09-15T14:58:22.511Z,52.37
2018-09-15T14:59:22.496Z,52.97
2018-09-15T15:00:22.530Z,52.69
2018-09-15T15:01:22.472Z,53.70
2018-09-15T15:02:22.611Z,52.26
2018-09-15T15:03:22.454Z,52.47
2018-09-15T15:04:22.450Z,52.89
2018-09-15T15:05:22.544Z,53.00
2018-09-15T15:06:22.514Z,53.57
2018-09-15T15:07:22.421Z,53.47
2018-09-15T15:08:23.327Z,51.86
2018-09-15T15:09:22.385Z,52.87
2018-09-15T15:10:22.440Z,52.87
2018-09-15T15:11:22.438Z,51.97
2018-09-15T15:13:34.945Z,52.57
2018-09-15T15:14:34.472Z,52.26
2018-09-15T15:15:34.567Z,52.67
2018-09-15T15:16:34.582Z,53.27
2018-09-15T15:17:34.466Z,51.86
2018-09-15T15:18:34.446Z,52.77
2018-09-15T15:19:34.362Z,52.97
2018-09-15T15:20:34.342Z,52.37
2018-09-15T15:21:34.359Z,50.15
2018-09-15T15:22:34.370Z,51.86
2018-09-15T15:23:34.437Z,50.46
2018-09-15T15:24:35.891Z,50.56
2018-09-15T15:25:34.866Z,50.76
2018-09-15T15:26:34.426Z,50.58
2018-09-15T15:27:34.368Z,50.86
2018-09-15T15:28:41.104Z,51.97
2018-09-15T15:49:05.385Z,52.89
2018-09-15T15:50:05.399Z,53.09
2018-09-15T15:51:05.190Z,52.89
2018-09-15T15:52:05.127Z,53.00
2018-09-15T15:53:05.142Z,53.40
2018-09-15T15:54:05.066Z,53.40
2018-09-15T15:55:05.228Z,53.92
2018-09-15T15:56:10.579Z,53.80
2018-09-15T15:57:05.253Z,53.90
2018-09-15T15:59:31.477Z,53.60
2018-09-15T16:00:31.566Z,53.30
2018-09-15T16:01:32.336Z,53.92
2018-09-15T16:02:31.507Z,54.10
2018-09-15T16:03:31.416Z,53.92
2018-09-15T16:04:31.333Z,54.13
2018-09-15T16:05:31.564Z,54.33
2018-09-15T16:06:32.081Z,53.90
2018-09-15T16:07:31.345Z,54.33
2018-09-15T16:08:31.278Z,54.43
2018-09-15T16:09:31.330Z,53.83
2018-09-15T16:10:31.343Z,54.23
2018-09-15T16:11:32.076Z,54.71
2018-09-15T16:12:38.245Z,53.92
2018-09-15T16:22:10.632Z,54.60
2018-09-15T16:23:10.530Z,55.00
2018-09-15T16:24:10.094Z,54.80
2018-09-15T16:25:10.071Z,55.33
2018-09-15T16:26:10.425Z,55.23
2018-09-15T16:27:10.072Z,55.51
2018-09-15T16:28:09.971Z,55.31
2018-09-15T16:29:10.538Z,55.23
2018-09-15T16:55:33.893Z,56.87
2018-09-15T16:56:33.668Z,57.48
2018-09-15T16:57:33.527Z,57.07
2018-09-15T16:58:34.106Z,57.07
2018-09-15T16:59:34.328Z,56.97
2018-09-15T17:00:33.315Z,57.07
2018-09-15T17:01:33.316Z,57.28
2018-09-15T17:02:34.191Z,57.68
2018-09-15T17:03:33.338Z,57.07
2018-09-15T17:04:33.139Z,57.48
2018-09-15T17:05:33.196Z,57.48
2018-09-15T17:06:33.107Z,57.40
2018-09-15T17:07:33.141Z,57.81
2018-09-15T17:08:33.717Z,57.40
2018-09-15T17:09:33.089Z,57.20
2018-09-15T17:10:33.160Z,58.01
2018-09-15T17:11:33.095Z,58.21
2018-09-15T17:12:33.063Z,58.01
2018-09-15T17:13:33.041Z,57.81
2018-09-15T17:14:33.141Z,58.61
2018-09-15T17:15:33.060Z,58.21
2018-09-15T17:16:33.117Z,58.23
2018-09-15T17:17:34.688Z,59.01
2018-09-15T17:18:33.147Z,58.21
2018-09-15T17:19:33.018Z,58.94
2018-09-15T17:20:33.072Z,59.01
2018-09-15T17:21:32.984Z,59.34
2018-09-15T17:22:33.126Z,59.14
2018-09-15T17:23:33.135Z,58.94
2018-09-15T17:24:33.010Z,59.14
2018-09-15T17:25:34.015Z,59.04
2018-09-15T17:26:44.104Z,59.44
2018-09-15T17:27:33.110Z,59.44
2018-09-15T17:28:32.948Z,59.04
2018-09-15T17:29:33.315Z,60.35
2018-09-15T17:30:32.873Z,60.65
2018-09-15T17:31:32.831Z,60.88
2018-09-15T17:32:33.085Z,60.98
2018-09-15T17:33:32.825Z,61.29
2018-09-15T17:34:32.772Z,61.49
2018-09-15T17:35:32.817Z,61.56
2018-09-15T17:36:32.822Z,61.86
2018-09-15T17:37:32.885Z,61.59
2018-09-15T17:38:32.750Z,61.69
2018-09-15T17:39:32.725Z,62.80
2018-09-15T17:40:32.704Z,62.29
2018-09-15T17:41:32.747Z,62.70
2018-09-15T17:42:32.737Z,62.22
2018-09-15T17:43:32.692Z,62.43
2018-09-15T17:44:32.664Z,62.63
2018-09-15T17:45:32.682Z,63.43
2018-09-15T17:46:32.635Z,63.33
2018-09-15T17:47:32.687Z,63.64
2018-09-15T17:48:32.609Z,63.96
2018-09-15T17:49:32.600Z,62.83
2018-09-15T17:50:32.850Z,64.27
2018-09-15T17:51:32.581Z,64.67
2018-09-15T17:52:32.587Z,63.67
2018-09-15T17:53:32.581Z,63.26
2018-09-15T17:54:32.598Z,64.37
2018-09-15T17:55:32.535Z,63.87
2018-09-15T17:56:32.522Z,64.90
2018-09-15T17:57:32.540Z,63.79
2018-09-15T17:58:32.858Z,64.10
2018-09-15T17:59:32.517Z,64.50
2018-09-15T18:00:32.488Z,65.41
2018-09-15T18:01:32.468Z,65.34
2018-09-15T18:02:32.476Z,65.24
2018-09-15T18:03:32.515Z,65.14
2018-09-15T18:04:47.815Z,64.73
2018-09-15T18:05:32.570Z,65.24
2018-09-15T18:06:32.480Z,65.34
2018-09-15T18:07:32.594Z,65.54
2018-09-15T18:08:32.487Z,65.95
2018-09-15T18:09:32.479Z,65.67
2018-09-15T18:10:32.382Z,66.18
2018-09-15T18:11:32.360Z,66.08
2018-09-15T18:12:44.215Z,66.28
2018-09-15T18:13:32.445Z,66.18
2018-09-15T18:14:32.391Z,66.78
2018-09-15T18:15:32.338Z,66.92
2018-09-15T18:16:32.369Z,66.52
2018-09-15T18:17:32.344Z,67.22
2018-09-15T18:18:32.397Z,67.22
2018-09-15T18:19:32.330Z,67.12
2018-09-15T18:20:32.251Z,66.82
2018-09-15T18:21:32.256Z,67.72
2018-09-15T18:22:32.231Z,67.86
2018-09-15T18:23:32.261Z,67.46
2018-09-15T18:24:32.291Z,67.96
2018-09-15T18:25:32.209Z,68.37
2018-09-15T18:26:32.187Z,67.86
2018-09-15T18:27:32.174Z,67.05
2018-09-15T18:28:32.168Z,68.60
2018-09-15T18:29:32.234Z,69.01
2018-09-15T18:30:32.211Z,68.60
2018-09-15T18:31:32.132Z,68.10
2018-09-15T18:32:32.115Z,69.14
2018-09-15T18:33:32.177Z,68.63
2018-09-15T18:34:41.096Z,68.94
2018-09-15T18:35:32.248Z,70.15
2018-09-15T18:36:32.235Z,69.54
2018-09-15T18:37:32.205Z,70.36
2018-09-15T18:38:32.101Z,70.05
2018-09-15T18:39:32.056Z,70.25
2018-09-15T18:40:32.054Z,70.18
2018-09-15T18:41:32.038Z,69.74
2018-09-15T18:44:14.945Z,70.25
2018-09-15T19:10:17.585Z,73.02
2018-09-15T19:11:17.753Z,73.33
2018-09-15T19:41:25.887Z,76.58
